Time;durP1;ratioP1;P1;durP2;ratioP2;P2;SDS_P1;SDS_P2;PMS_P1;PMS_P2;Temp;Humidity;BMP_temperature;BMP_pressure;BME280_temperature;BME280_humidity;BME280_pressure;Samples;Min_cycle;Max_cycle;Signal;HPM_P1;HPM_P2
2023/06/07 00:00:25;;;;;;;8.87;8.27;;;;;;;16.61;nan;99338.41;5062060;28;20189;-79
2023/06/07 00:02:53;;;;;;;9.30;8.63;;;;;;;16.62;nan;99342.72;5072682;28;20197;-79
2023/06/07 00:05:21;;;;;;;9.47;8.60;;;;;;;16.61;nan;99346.50;5073028;28;20241;-79
2023/06/07 00:07:48;;;;;;;9.30;8.47;;;;;;;16.62;nan;99341.91;5054495;28;20190;-78
2023/06/07 00:10:15;;;;;;;9.60;8.77;;;;;;;16.57;nan;99345.38;5062648;28;20194;-79
2023/06/07 00:12:42;;;;;;;9.30;8.50;;;;;;;16.57;nan;99342.69;5057418;28;20196;-79
2023/06/07 00:15:10;;;;;;;9.07;8.30;;;;;;;16.60;nan;99347.63;5047621;28;20196;-79
2023/06/07 00:17:40;;;;;;;8.73;8.03;;;;;;;16.58;nan;99346.25;5067115;28;20216;-79
2023/06/07 00:20:08;;;;;;;9.30;8.60;;;;;;;16.59;nan;99339.75;5069736;28;20194;-79
2023/06/07 00:22:35;;;;;;;9.27;8.57;;;;;;;16.59;nan;99342.47;5067988;28;20214;-78
2023/06/07 00:25:04;;;;;;;9.00;8.30;;;;;;;16.59;nan;99342.47;5067014;28;20190;-79
2023/06/07 00:27:31;;;;;;;9.00;8.30;;;;;;;16.57;nan;99339.97;5069835;28;20641;-80
2023/06/07 00:29:58;;;;;;;9.17;8.47;;;;;;;16.59;nan;99345.97;5071104;28;20256;-80
2023/06/07 00:32:25;;;;;;;9.60;8.80;;;;;;;16.60;nan;99344.09;5061229;28;20186;-79
2023/06/07 00:34:51;;;;;;;8.67;8.07;;;;;;;16.59;nan;99343.28;5055900;28;20206;-79
2023/06/07 00:37:18;;;;;;;9.00;8.20;;;;;;;16.56;nan;99340.25;5070169;28;20181;-80
2023/06/07 00:39:45;;;;;;;8.77;8.07;;;;;;;16.58;nan;99347.06;5063328;28;20536;-81
2023/06/07 00:42:12;;;;;;;8.93;8.13;;;;;;;16.62;nan;99345.44;5048238;28;20737;-80
2023/06/07 00:44:40;;;;;;;8.57;7.97;;;;;;;16.61;nan;99353.84;5049073;28;20732;-80
2023/06/07 00:47:06;;;;;;;8.60;8.00;;;;;;;16.60;nan;99346.78;5060259;28;20759;-80
2023/06/07 00:49:33;;;;;;;8.13;7.53;;;;;;;16.58;nan;99335.41;5048318;28;20189;-79
2023/06/07 00:52:00;;;;;;;8.63;8.03;;;;;;;16.61;nan;99346.50;5058744;28;20238;-81
2023/06/07 00:54:28;;;;;;;8.97;8.30;;;;;;;16.60;nan;99341.38;5055053;28;20205;-81
2023/06/07 00:56:57;;;;;;;8.63;8.03;;;;;;;16.60;nan;99344.09;5053019;28;20193;-79
2023/06/07 00:59:24;;;;;;;8.83;8.13;;;;;;;16.56;nan;99342.97;5046712;28;20187;-80
2023/06/07 01:01:55;;;;;;;9.43;8.60;;;;;;;16.54;nan;99343.22;5061330;28;20755;-80
2023/06/07 01:04:24;;;;;;;8.47;7.77;;;;;;;16.56;nan;99341.06;5058787;28;20190;-79
2023/06/07 01:06:54;;;;;;;9.67;8.80;;;;;;;16.55;nan;99334.03;5053789;28;20191;-79
2023/06/07 01:09:21;;;;;;;8.93;8.13;;;;;;;16.83;nan;99334.69;5063236;28;20225;-80
2023/06/07 01:11:50;;;;;;;8.57;7.90;;;;;;;16.82;nan;99333.06;5053864;28;20677;-79
2023/06/07 01:14:18;;;;;;;9.43;8.73;;;;;;;16.83;nan;99327.38;5067551;28;20197;-80
2023/06/07 01:16:50;;;;;;;9.50;8.80;;;;;;;16.83;nan;99327.38;5069166;28;20200;-79
2023/06/07 01:19:21;;;;;;;9.57;8.87;;;;;;;16.83;nan;99326.56;5069250;28;20742;-80
2023/06/07 01:21:52;;;;;;;9.60;8.63;;;;;;;16.80;nan;99319.78;5065959;28;20285;-79
2023/06/07 01:24:20;;;;;;;9.63;8.87;;;;;;;16.84;nan;99328.19;5060932;28;20611;-79
2023/06/07 01:26:57;;;;;;;9.10;8.40;;;;;;;16.80;nan;99327.13;5071555;28;20185;-79
2023/06/07 01:29:27;;;;;;;9.47;8.77;;;;;;;16.81;nan;99326.81;5071768;28;20543;-78
2023/06/07 01:32:01;;;;;;;10.00;9.30;;;;;;;16.81;nan;99328.72;5060108;28;20194;-79
2023/06/07 01:34:29;;;;;;;10.67;9.87;;;;;;;16.78;nan;99323.84;5062047;28;20202;-80
2023/06/07 01:36:55;;;;;;;10.43;9.53;;;;;;;16.72;nan;99323.03;5063405;28;20560;-80
2023/06/07 01:39:23;;;;;;;9.60;8.80;;;;;;;16.74;nan;99318.16;5070558;28;20673;-79
2023/06/07 01:41:51;;;;;;;9.80;9.10;;;;;;;16.76;nan;99317.88;5064547;28;21093;-79
2023/06/07 01:44:18;;;;;;;9.37;8.67;;;;;;;16.77;nan;99322.22;5051562;28;20660;-78
2023/06/07 01:46:46;;;;;;;9.80;8.90;;;;;;;16.77;nan;99317.63;5056357;28;20197;-78
2023/06/07 01:49:17;;;;;;;10.47;9.53;;;;;;;16.80;nan;99319.00;5047358;28;20187;-78
2023/06/07 01:51:44;;;;;;;9.87;9.07;;;;;;;16.82;nan;99324.94;5053746;28;20197;-79
2023/06/07 01:54:14;;;;;;;9.77;8.97;;;;;;;16.76;nan;99307.06;5052018;28;20198;-80
2023/06/07 01:57:13;;;;;;;9.37;8.47;;;;;;;16.77;nan;99309.50;5058547;28;20664;-79
2023/06/07 02:00:02;;;;;;;9.73;8.90;;;;;;;16.76;nan;99313.28;5060570;28;20197;-78
2023/06/07 02:02:56;;;;;;;10.17;9.47;;;;;;;16.76;nan;99305.16;5061300;28;20539;-78
2023/06/07 02:05:31;;;;;;;9.47;8.67;;;;;;;16.75;nan;99303.53;5064343;28;20191;-79
2023/06/07 02:08:06;;;;;;;9.13;8.43;;;;;;;16.75;nan;99300.84;5051277;28;20234;-78
2023/06/07 02:10:35;;;;;;;8.50;7.90;;;;;;;16.75;nan;99306.25;5070298;28;20288;-79
2023/06/07 02:13:02;;;;;;;9.37;8.63;;;;;;;16.76;nan;99302.47;5069839;28;20185;-79
2023/06/07 02:15:28;;;;;;;8.80;8.10;;;;;;;16.72;nan;99299.50;5071486;28;20595;-79
2023/06/07 02:17:57;;;;;;;8.90;8.10;;;;;;;16.70;nan;99298.16;5071123;28;20673;-79
2023/06/07 02:20:25;;;;;;;8.17;7.57;;;;;;;16.73;nan;99298.41;5059807;28;20179;-81
2023/06/07 02:22:54;;;;;;;9.63;8.70;;;;;;;16.72;nan;99296.78;5069874;28;20277;-84
2023/06/07 02:25:21;;;;;;;9.43;8.73;;;;;;;16.69;nan;99293.81;5058271;28;20249;-80
2023/06/07 02:27:49;;;;;;;8.97;8.27;;;;;;;16.69;nan;99296.50;5057052;28;20248;-83
2023/06/07 02:30:16;;;;;;;8.60;7.90;;;;;;;16.69;nan;99289.22;5054485;28;20668;-84
2023/06/07 02:32:48;;;;;;;8.97;8.30;;;;;;;16.70;nan;99292.72;5063700;28;20570;-84
2023/06/07 02:35:17;;;;;;;8.50;7.90;;;;;;;16.65;nan;99295.44;5070852;28;20257;-81
2023/06/07 02:37:45;;;;;;;8.97;8.27;;;;;;;16.68;nan;99294.88;5068439;28;20738;-82
2023/06/07 02:40:13;;;;;;;7.97;7.47;;;;;;;16.65;nan;99293.53;5063444;28;20302;-81
2023/06/07 02:42:47;;;;;;;7.73;7.13;;;;;;;16.65;nan;99285.44;5070508;28;20680;-82
2023/06/07 02:45:14;;;;;;;7.47;6.97;;;;;;;16.63;nan;99289.47;5067632;28;20190;-83
2023/06/07 02:47:42;;;;;;;7.27;6.70;;;;;;;16.65;nan;99295.44;5066118;28;20239;-82
2023/06/07 02:50:09;;;;;;;7.03;6.53;;;;;;;16.66;nan;99292.44;5052832;28;20207;-81
2023/06/07 02:52:37;;;;;;;7.57;6.83;;;;;;;16.62;nan;99294.06;5061818;28;20730;-81
2023/06/07 02:55:07;;;;;;;6.60;6.10;;;;;;;16.64;nan;99296.50;5060034;28;20199;-81
2023/06/07 02:57:35;;;;;;;7.23;6.53;;;;;;;16.62;nan;99294.06;5061036;28;20239;-81
2023/06/07 03:00:08;;;;;;;6.77;6.27;;;;;;;16.63;nan;99298.38;5064511;28;20193;-81
2023/06/07 03:02:44;;;;;;;6.70;6.20;;;;;;;16.60;nan;99290.00;5061828;28;20280;-81
2023/06/07 03:05:12;;;;;;;6.60;5.90;;;;;;;16.59;nan;99288.38;5067227;28;20181;-80
2023/06/07 03:07:41;;;;;;;6.70;6.07;;;;;;;16.59;nan;99300.00;5057090;28;20194;-80
2023/06/07 03:10:09;;;;;;;6.90;6.40;;;;;;;16.57;nan;99294.00;5058069;28;20202;-80
2023/06/07 03:12:36;;;;;;;7.07;6.47;;;;;;;16.58;nan;99297.56;5058342;28;20208;-81
2023/06/07 03:15:05;;;;;;;7.07;6.47;;;;;;;16.58;nan;99295.66;5060041;28;20662;-80
2023/06/07 03:17:32;;;;;;;7.23;6.73;;;;;;;16.58;nan;99292.97;5063481;28;20243;-80
2023/06/07 03:20:00;;;;;;;6.80;6.20;;;;;;;16.62;nan;99304.06;5056964;28;20194;-80
2023/06/07 03:22:30;;;;;;;8.20;6.07;;;;;;;16.64;nan;99299.19;5063993;28;20210;-83
2023/06/07 03:24:59;;;;;;;7.23;6.33;;;;;;;16.62;nan;99302.16;5021242;28;20212;-83
2023/06/07 03:27:27;;;;;;;7.10;6.50;;;;;;;16.65;nan;99300.84;5053758;28;20197;-80
2023/06/07 03:29:59;;;;;;;6.23;5.73;;;;;;;16.64;nan;99307.31;5061795;28;20197;-81
2023/06/07 03:32:28;;;;;;;6.80;6.13;;;;;;;16.67;nan;99310.28;5061633;28;20233;-80
2023/06/07 03:34:55;;;;;;;6.73;6.23;;;;;;;16.67;nan;99299.47;5060061;28;20178;-80
2023/06/07 03:37:22;;;;;;;6.47;5.97;;;;;;;16.67;nan;99302.19;5059182;28;20194;-78
2023/06/07 03:39:49;;;;;;;6.53;6.00;;;;;;;16.62;nan;99309.47;5059078;28;20683;-80
2023/06/07 03:42:16;;;;;;;6.40;5.90;;;;;;;16.62;nan;99310.28;5052755;28;20207;-80
2023/06/07 03:44:43;;;;;;;6.60;6.10;;;;;;;16.63;nan;99311.09;5057753;28;20723;-78
2023/06/07 03:47:10;;;;;;;6.53;6.07;;;;;;;16.66;nan;99307.84;5059502;28;20215;-79
2023/06/07 03:49:37;;;;;;;6.70;6.20;;;;;;;16.66;nan;99308.66;5057349;28;20251;-80
2023/06/07 03:52:05;;;;;;;6.10;5.70;;;;;;;16.69;nan;99305.44;5054172;28;20237;-79
2023/06/07 03:54:33;;;;;;;6.63;6.10;;;;;;;16.75;nan;99306.25;5057839;28;20221;-79
2023/06/07 03:57:01;;;;;;;6.60;6.10;;;;;;;16.76;nan;99304.34;5058356;28;20674;-79
2023/06/07 03:59:31;;;;;;;6.67;6.10;;;;;;;16.79;nan;99304.66;5054505;28;20208;-80
2023/06/07 04:02:00;;;;;;;6.93;6.33;;;;;;;16.77;nan;99306.81;5058504;28;20227;-78
2023/06/07 04:04:27;;;;;;;6.97;6.37;;;;;;;16.79;nan;99310.06;5058672;28;20756;-78
2023/06/07 04:06:57;;;;;;;7.17;6.67;;;;;;;16.81;nan;99305.19;5063431;28;20205;-78
2023/06/07 04:09:24;;;;;;;7.07;6.47;;;;;;;16.83;nan;99310.34;5065173;28;20757;-77
2023/06/07 04:11:51;;;;;;;7.23;6.53;;;;;;;16.85;nan;99300.03;5063123;28;20186;-79
2023/06/07 04:14:18;;;;;;;7.30;6.70;;;;;;;16.87;nan;99300.59;5056228;28;20225;-78
2023/06/07 04:16:47;;;;;;;7.40;6.80;;;;;;;16.88;nan;99311.16;5070255;28;20577;-77
2023/06/07 04:19:15;;;;;;;6.87;6.37;;;;;;;16.88;nan;99303.03;5065896;28;20210;-79
2023/06/07 04:21:44;;;;;;;7.07;6.57;;;;;;;16.90;nan;99311.69;5062708;28;20188;-79
2023/06/07 04:24:11;;;;;;;6.80;6.30;;;;;;;16.89;nan;99314.69;5070787;28;20242;-80
2023/06/07 04:26:42;;;;;;;6.63;6.00;;;;;;;16.91;nan;99310.63;5071712;28;20185;-80
2023/06/07 04:29:09;;;;;;;7.07;6.47;;;;;;;16.91;nan;99307.91;5070633;28;20209;-80
2023/06/07 04:31:39;;;;;;;7.40;6.20;;;;;;;16.93;nan;99321.19;5062597;28;20194;-80
2023/06/07 04:34:09;;;;;;;7.70;7.00;;;;;;;16.96;nan;99309.81;5064251;28;20194;-78
2023/06/07 04:36:38;;;;;;;7.30;6.67;;;;;;;16.97;nan;99317.66;5065998;28;20194;-78
2023/06/07 04:39:15;;;;;;;7.20;6.60;;;;;;;16.91;nan;99313.31;5063410;28;20191;-78
2023/06/07 04:41:45;;;;;;;7.37;6.80;;;;;;;17.05;nan;99314.44;5035375;28;20281;-78
2023/06/07 04:44:15;;;;;;;7.70;7.00;;;;;;;16.94;nan;99315.47;5058297;28;20605;-78
2023/06/07 04:46:43;;;;;;;7.70;6.80;;;;;;;16.93;nan;99321.19;5055819;28;20189;-78
2023/06/07 04:49:17;;;;;;;7.93;7.23;;;;;;;16.89;nan;99320.88;5064456;28;20655;-77
2023/06/07 04:51:48;;;;;;;7.60;7.00;;;;;;;16.96;nan;99317.94;5069476;28;20195;-78
2023/06/07 04:54:16;;;;;;;7.70;7.07;;;;;;;16.90;nan;99322.50;5065921;28;20722;-78
2023/06/07 04:56:47;;;;;;;8.17;7.47;;;;;;;16.87;nan;99328.47;5053157;28;20288;-77
2023/06/07 04:59:15;;;;;;;8.27;7.57;;;;;;;16.87;nan;99330.34;5065774;28;20201;-78
2023/06/07 05:01:43;;;;;;;8.07;7.40;;;;;;;16.83;nan;99329.28;5067721;28;20184;-78
2023/06/07 05:04:11;;;;;;;8.40;7.70;;;;;;;16.87;nan;99335.78;5057986;28;20254;-78
2023/06/07 05:06:46;;;;;;;8.50;7.90;;;;;;;16.87;nan;99338.47;5048514;28;20203;-78
2023/06/07 05:09:13;;;;;;;9.00;8.20;;;;;;;16.85;nan;99332.50;5033937;28;20226;-78
2023/06/07 05:11:40;;;;;;;9.30;8.40;;;;;;;16.83;nan;99332.78;5058912;28;20778;-78
2023/06/07 05:14:07;;;;;;;9.37;8.50;;;;;;;16.82;nan;99343.88;5063918;28;20667;-78
2023/06/07 05:16:35;;;;;;;9.27;8.57;;;;;;;16.80;nan;99341.44;5056851;28;20204;-78
2023/06/07 05:19:03;;;;;;;9.93;9.07;;;;;;;16.81;nan;99343.06;5058801;28;20553;-78
2023/06/07 05:21:35;;;;;;;10.80;8.97;;;;;;;16.76;nan;99348.44;5060693;28;20211;-78
2023/06/07 05:24:02;;;;;;;9.63;8.83;;;;;;;16.77;nan;99341.16;5061541;28;20769;-78
2023/06/07 05:26:30;;;;;;;9.47;8.63;;;;;;;16.81;nan;99340.34;5056185;28;20201;-78
2023/06/07 05:28:57;;;;;;;9.70;8.97;;;;;;;16.87;nan;99349.31;5050811;28;20231;-78
2023/06/07 05:31:25;;;;;;;9.83;8.97;;;;;;;16.94;nan;99336.31;5057607;28;20227;-78
2023/06/07 05:33:53;;;;;;;10.80;9.90;;;;;;;16.97;nan;99344.72;5059741;28;20206;-78
2023/06/07 05:36:20;;;;;;;10.30;9.40;;;;;;;16.98;nan;99343.63;5055756;28;20236;-80
2023/06/07 05:38:48;;;;;;;10.50;9.60;;;;;;;17.01;nan;99347.72;5054287;28;20202;-80
2023/06/07 05:41:16;;;;;;;9.60;8.90;;;;;;;17.07;nan;99352.06;5053006;28;20244;-80
2023/06/07 05:43:44;;;;;;;10.30;9.40;;;;;;;17.21;nan;99350.44;5038696;28;20218;-80
2023/06/07 05:46:11;;;;;;;10.27;9.27;;;;;;;17.29;nan;99355.31;5053114;28;20192;-80
2023/06/07 05:48:39;;;;;;;10.03;9.20;;;;;;;17.38;nan;99359.13;5051043;28;20217;-79
2023/06/07 05:51:10;;;;;;;10.27;9.47;;;;;;;17.50;nan;99354.22;5047465;28;20190;-80
2023/06/07 05:53:37;;;;;;;10.40;9.43;;;;;;;17.63;nan;99360.25;5050226;28;20834;-80
2023/06/07 05:56:04;;;;;;;10.07;9.17;;;;;;;17.70;nan;99356.16;5046943;28;20218;-80
2023/06/07 05:58:31;;;;;;;10.47;9.57;;;;;;;17.75;nan;99360.75;5065480;28;20194;-80
2023/06/07 06:00:58;;;;;;;10.90;10.00;;;;;;;17.75;nan;99358.03;5071597;28;20187;-80
2023/06/07 06:03:26;;;;;;;9.90;9.10;;;;;;;17.74;nan;99351.81;5057012;28;20218;-80
2023/06/07 06:05:56;;;;;;;10.43;9.53;;;;;;;17.77;nan;99351.28;5070057;28;20190;-80
2023/06/07 06:08:23;;;;;;;10.10;9.30;;;;;;;17.80;nan;99360.75;5061122;28;20254;-82
2023/06/07 06:10:50;;;;;;;10.20;9.30;;;;;;;17.83;nan;99362.91;5072622;28;20198;-80
2023/06/07 06:13:16;;;;;;;10.20;9.40;;;;;;;17.81;nan;99351.53;5066544;28;20202;-80
2023/06/07 06:15:43;;;;;;;9.77;9.00;;;;;;;17.82;nan;99364.00;5057765;28;20190;-80
2023/06/07 06:18:10;;;;;;;9.80;9.10;;;;;;;17.82;nan;99364.84;5042247;28;20589;-80
2023/06/07 06:20:38;;;;;;;9.40;8.70;;;;;;;17.87;nan;99362.09;5049839;28;20197;-80
2023/06/07 06:23:05;;;;;;;10.07;9.17;;;;;;;18.00;nan;99363.44;5053638;28;20792;-80
2023/06/07 06:25:32;;;;;;;9.33;8.63;;;;;;;18.06;nan;99358.81;5065328;28;20191;-80
2023/06/07 06:27:59;;;;;;;9.47;8.67;;;;;;;18.16;nan;99359.59;5057492;28;20222;-80
2023/06/07 06:30:27;;;;;;;9.37;8.67;;;;;;;18.24;nan;99360.94;5056362;28;20571;-80
2023/06/07 06:32:54;;;;;;;9.10;8.30;;;;;;;18.24;nan;99369.91;5056428;28;20648;-80
2023/06/07 06:35:21;;;;;;;9.30;8.60;;;;;;;18.27;nan;99369.31;5058195;28;20187;-80
2023/06/07 06:37:48;;;;;;;8.67;7.87;;;;;;;18.38;nan;99367.41;5058208;28;20658;-80
2023/06/07 06:40:16;;;;;;;8.10;7.50;;;;;;;18.37;nan;99358.44;5059104;28;20986;-80
2023/06/07 06:42:43;;;;;;;8.70;8.00;;;;;;;18.38;nan;99361.97;5058257;28;20190;-80
2023/06/07 06:45:25;;;;;;;8.53;7.83;;;;;;;18.38;nan;99364.69;5055822;28;20196;-82
2023/06/07 06:47:52;;;;;;;8.70;7.90;;;;;;;18.41;nan;99361.41;5043257;28;20570;-82
2023/06/07 06:50:18;;;;;;;8.20;7.60;;;;;;;18.44;nan;99366.28;5062493;28;20197;-82
2023/06/07 06:52:58;;;;;;;7.77;7.20;;;;;;;18.47;nan;99365.75;5054667;28;20206;-83
2023/06/07 06:55:24;;;;;;;8.80;8.03;;;;;;;18.45;nan;99376.03;5054831;28;20660;-83
2023/06/07 06:57:51;;;;;;;8.50;7.80;;;;;;;18.50;nan;99376.03;5060165;28;20188;-81
2023/06/07 07:00:18;;;;;;;8.73;7.90;;;;;;;18.52;nan;99379.28;5061827;28;20187;-82
2023/06/07 07:02:45;;;;;;;8.67;7.97;;;;;;;18.49;nan;99375.22;5041608;28;20667;-82
2023/06/07 07:05:13;;;;;;;8.73;8.07;;;;;;;18.45;nan;99371.44;5061120;28;20269;-83
2023/06/07 07:07:39;;;;;;;8.77;8.07;;;;;;;18.43;nan;99381.72;5055359;28;20269;-84
2023/06/07 07:10:07;;;;;;;8.07;7.47;;;;;;;18.46;nan;99385.81;5035449;28;20255;-82
2023/06/07 07:12:36;;;;;;;8.10;7.50;;;;;;;18.44;nan;99385.25;5051338;28;20195;-83
2023/06/07 07:15:04;;;;;;;8.77;8.07;;;;;;;18.47;nan;99387.44;5057169;28;20195;-81
2023/06/07 07:17:31;;;;;;;8.47;7.77;;;;;;;18.48;nan;99392.56;5062993;28;20200;-84
2023/06/07 07:19:58;;;;;;;8.20;7.50;;;;;;;18.51;nan;99390.41;5060712;28;20215;-83
2023/06/07 07:22:25;;;;;;;8.73;8.03;;;;;;;18.56;nan;99395.84;5061209;28;20248;-83
2023/06/07 07:24:55;;;;;;;9.40;8.60;;;;;;;18.64;nan;99395.25;5059245;28;20257;-82
2023/06/07 07:27:22;;;;;;;9.17;8.40;;;;;;;18.70;nan;99391.44;5047461;28;20224;-84
2023/06/07 07:29:49;;;;;;;9.37;8.67;;;;;;;18.80;nan;99392.19;5062575;28;20266;-82
2023/06/07 07:32:16;;;;;;;9.63;8.83;;;;;;;18.85;nan;99392.16;5063268;28;20233;-82
2023/06/07 07:34:43;;;;;;;9.57;8.63;;;;;;;18.94;nan;99402.47;5052108;28;20192;-82
2023/06/07 07:37:10;;;;;;;8.83;8.20;;;;;;;18.94;nan;99406.00;5029740;28;20219;-81
2023/06/07 07:39:38;;;;;;;8.97;8.27;;;;;;;19.00;nan;99404.84;5057405;28;20204;-82
2023/06/07 07:42:06;;;;;;;8.77;8.07;;;;;;;19.09;nan;99405.06;5055389;28;20199;-80
2023/06/07 07:44:37;;;;;;;9.17;8.47;;;;;;;19.06;nan;99403.75;5059666;28;20212;-80
2023/06/07 07:47:05;;;;;;;9.33;8.63;;;;;;;19.05;nan;99391.25;5058983;28;20196;-80
2023/06/07 07:49:32;;;;;;;9.10;8.43;;;;;;;19.13;nan;99398.00;5052595;28;20599;-79
2023/06/07 07:52:02;;;;;;;9.53;8.83;;;;;;;19.22;nan;99399.03;5050403;28;20251;-79
2023/06/07 07:54:29;;;;;;;9.50;8.70;;;;;;;19.31;nan;99395.44;5052827;28;20181;-80
2023/06/07 07:56:56;;;;;;;9.17;8.47;;;;;;;19.42;nan;99400.78;5051833;28;20192;-79
2023/06/07 07:59:23;;;;;;;8.87;8.17;;;;;;;19.49;nan;99409.47;5050234;28;20204;-81
2023/06/07 08:01:50;;;;;;;8.60;7.90;;;;;;;19.49;nan;99407.56;5051932;28;20196;-82
2023/06/07 08:04:16;;;;;;;8.30;7.60;;;;;;;19.60;nan;99408.28;5053981;28;20264;-81
2023/06/07 08:06:45;;;;;;;9.00;8.20;;;;;;;19.69;nan;99399.25;5055513;28;20199;-81
2023/06/07 08:09:12;;;;;;;8.20;7.50;;;;;;;19.83;nan;99404.81;5055287;28;20276;-81
2023/06/07 08:11:38;;;;;;;8.43;7.63;;;;;;;20.04;nan;99400.03;5055544;28;20246;-82
2023/06/07 08:14:05;;;;;;;9.17;8.43;;;;;;;20.18;nan;99393.63;5021550;28;20198;-82
2023/06/07 08:16:32;;;;;;;8.37;7.67;;;;;;;20.41;nan;99402.13;5054416;28;20190;-82
2023/06/07 08:18:59;;;;;;;7.70;7.10;;;;;;;20.50;nan;99398.47;5062571;28;20195;-81
2023/06/07 08:21:26;;;;;;;8.03;7.37;;;;;;;20.58;nan;99391.56;5057253;28;20662;-82
2023/06/07 08:23:54;;;;;;;7.23;6.73;;;;;;;20.59;nan;99396.72;5062207;28;20230;-82
2023/06/07 08:26:22;;;;;;;7.67;7.07;;;;;;;20.72;nan;99389.75;5050835;28;20194;-82
2023/06/07 08:28:49;;;;;;;7.63;6.93;;;;;;;20.86;nan;99390.66;5056864;28;20298;-82
2023/06/07 08:31:17;;;;;;;7.87;7.27;;;;;;;21.03;nan;99388.28;5054222;28;20193;-84
2023/06/07 08:33:45;;;;;;;7.57;6.97;;;;;;;21.18;nan;99390.00;5058892;28;20224;-82
2023/06/07 08:36:13;;;;;;;7.63;7.00;;;;;;;21.17;nan;99393.00;5058350;28;20553;-82
2023/06/07 08:38:43;;;;;;;7.03;6.43;;;;;;;21.33;nan;99397.94;5065131;28;20229;-81
2023/06/07 08:41:10;;;;;;;7.40;6.70;;;;;;;21.40;nan;99397.56;5057355;28;20190;-81
2023/06/07 08:43:38;;;;;;;7.10;6.60;;;;;;;21.64;nan;99395.56;5046379;28;20572;-81
2023/06/07 08:46:05;;;;;;;6.50;6.00;;;;;;;21.81;nan;99392.25;5054788;28;20186;-81
2023/06/07 08:48:33;;;;;;;7.43;6.82;;;;;;;21.97;nan;99390.13;5052270;28;20210;-81
2023/06/07 08:51:04;;;;;;;6.60;6.10;;;;;;;22.17;nan;99387.00;5052191;28;20204;-81
2023/06/07 08:53:47;;;;;;;6.53;6.03;;;;;;;22.32;nan;99386.72;5054575;28;20194;-81
2023/06/07 08:56:15;;;;;;;6.93;6.43;;;;;;;22.50;nan;99385.81;5058251;28;20582;-80
2023/06/07 08:58:43;;;;;;;6.80;6.20;;;;;;;22.43;nan;99388.16;5052913;28;20577;-81
2023/06/07 09:01:11;;;;;;;6.05;5.65;;;;;;;22.49;nan;99384.19;5051314;28;20198;-81
2023/06/07 09:03:39;;;;;;;6.60;6.10;;;;;;;22.57;nan;99388.97;5048654;28;20204;-81
2023/06/07 09:06:06;;;;;;;6.57;6.00;;;;;;;22.47;nan;99382.88;5053194;28;20189;-81
2023/06/07 09:08:33;;;;;;;6.07;5.68;;;;;;;22.86;nan;99380.47;5051719;28;20227;-81
2023/06/07 09:11:00;;;;;;;7.00;6.40;;;;;;;23.25;nan;99379.84;5054535;28;20190;-81
2023/06/07 09:13:27;;;;;;;5.97;5.50;;;;;;;23.21;nan;99384.31;5055351;28;20197;-82
2023/06/07 09:15:56;;;;;;;5.47;5.07;;;;;;;23.45;nan;99370.41;5056782;28;20193;-81
2023/06/07 09:18:23;;;;;;;5.18;4.88;;;;;;;23.78;nan;99387.34;5045353;28;20197;-81
2023/06/07 09:20:49;;;;;;;6.22;5.75;;;;;;;23.42;nan;99380.00;5055015;28;20714;-81
2023/06/07 09:23:17;;;;;;;5.97;5.47;;;;;;;23.82;nan;99378.22;5054683;28;20728;-81
2023/06/07 09:25:47;;;;;;;6.35;5.82;;;;;;;24.06;nan;99381.41;5054320;28;20202;-81
2023/06/07 09:28:14;;;;;;;6.85;6.20;;;;;;;24.13;nan;99381.75;5048816;28;20188;-81
2023/06/07 09:30:55;;;;;;;6.68;6.07;;;;;;;24.41;nan;99376.09;5042254;28;20189;-82
2023/06/07 09:33:30;;;;;;;6.57;6.18;;;;;;;24.19;nan;99377.00;5049574;28;20185;-83
2023/06/07 09:36:13;;;;;;;6.95;6.35;;;;;;;24.48;nan;99379.19;5054382;28;20254;-81
2023/06/07 09:38:41;;;;;;;6.75;6.15;;;;;;;24.55;nan;99374.88;5053029;28;20185;-81
2023/06/07 09:41:09;;;;;;;6.57;5.95;;;;;;;24.83;nan;99372.69;5051619;28;20193;-81
2023/06/07 09:43:46;;;;;;;6.47;5.93;;;;;;;24.64;nan;99372.16;5055536;28;20204;-82
2023/06/07 09:46:14;;;;;;;6.05;5.65;;;;;;;25.08;nan;99387.59;5041812;28;20192;-82
2023/06/07 09:48:48;;;;;;;7.15;6.57;;;;;;;24.85;nan;99367.69;5055327;28;20213;-82
2023/06/07 09:51:16;;;;;;;6.43;6.00;;;;;;;24.96;nan;99374.50;5039022;28;20206;-82
2023/06/07 09:53:56;;;;;;;6.43;5.93;;;;;;;24.98;nan;99368.72;5050150;28;20234;-81
2023/06/07 09:56:24;;;;;;;6.03;5.57;;;;;;;25.44;nan;99368.88;5055683;28;20279;-82
2023/06/07 09:59:10;;;;;;;6.03;5.57;;;;;;;25.04;nan;99363.88;5052562;28;20208;-82
2023/06/07 10:01:42;;;;;;;5.28;4.97;;;;;;;24.44;nan;99362.59;5058033;28;20189;-83
2023/06/07 10:04:11;;;;;;;5.47;5.05;;;;;;;24.92;nan;99357.09;5068837;28;20212;-83
2023/06/07 10:06:45;;;;;;;5.75;5.13;;;;;;;25.84;nan;99366.78;5064105;28;20200;-82
2023/06/07 10:09:12;;;;;;;5.07;4.65;;;;;;;25.81;nan;99359.16;5049702;28;20231;-83
2023/06/07 10:11:41;;;;;;;4.90;4.60;;;;;;;26.67;nan;99350.63;5059717;28;20186;-81
2023/06/07 10:14:14;;;;;;;5.43;5.03;;;;;;;25.96;nan;99351.53;5046458;28;20204;-82
2023/06/07 10:16:45;;;;;;;5.60;5.05;;;;;;;26.41;nan;99362.88;5041297;28;20190;-81
2023/06/07 10:19:23;;;;;;;5.38;5.00;;;;;;;26.21;nan;99345.19;5042765;28;20197;-80
2023/06/07 10:21:51;;;;;;;5.97;5.57;;;;;;;26.17;nan;99355.19;5048294;28;20709;-81
2023/06/07 10:24:22;;;;;;;5.60;5.20;;;;;;;26.44;nan;99351.22;5045881;28;20222;-82
2023/06/07 10:26:55;;;;;;;5.80;5.40;;;;;;;26.61;nan;99346.44;5048851;28;20280;-82
2023/06/07 10:29:53;;;;;;;5.43;5.05;;;;;;;26.97;nan;99337.66;5054365;28;20616;-81
2023/06/07 10:32:25;;;;;;;5.43;5.13;;;;;;;25.43;nan;99336.28;5041932;28;20811;-82
2023/06/07 10:34:55;;;;;;;5.93;5.53;;;;;;;26.05;nan;99336.66;5062910;28;20223;-81
2023/06/07 10:37:22;;;;;;;7.13;5.60;;;;;;;24.79;nan;99332.53;5054530;28;20189;-82
2023/06/07 10:39:49;;;;;;;6.00;5.60;;;;;;;25.34;nan;99341.78;5051838;28;20246;-82
2023/06/07 10:42:16;;;;;;;5.63;5.13;;;;;;;25.93;nan;99339.28;5054028;28;20188;-81
2023/06/07 10:44:43;;;;;;;5.18;4.78;;;;;;;25.26;nan;99333.56;5053260;28;20218;-82
2023/06/07 10:47:22;;;;;;;5.57;5.18;;;;;;;25.35;nan;99332.44;5057683;28;20553;-81
2023/06/07 10:49:50;;;;;;;6.22;5.65;;;;;;;25.74;nan;99333.38;5049396;28;20277;-81
2023/06/07 10:52:18;;;;;;;6.03;5.53;;;;;;;25.28;nan;99329.38;5053871;28;20196;-82
2023/06/07 10:54:45;;;;;;;5.60;5.20;;;;;;;25.28;nan;99332.13;5049651;28;20710;-82
2023/06/07 10:57:12;;;;;;;5.75;5.32;;;;;;;25.00;nan;99330.84;5057125;28;20192;-82
2023/06/07 10:59:39;;;;;;;5.63;5.13;;;;;;;24.95;nan;99334.53;5038106;28;20187;-81
2023/06/07 11:02:23;;;;;;;5.65;5.10;;;;;;;24.03;nan;99327.28;5054858;28;20202;-81
2023/06/07 11:04:55;;;;;;;5.38;4.95;;;;;;;24.48;nan;99335.38;5056871;28;20204;-81
2023/06/07 11:07:27;;;;;;;6.03;5.53;;;;;;;24.38;nan;99331.00;5055992;28;20190;-81
2023/06/07 11:10:00;;;;;;;5.53;5.13;;;;;;;25.32;nan;99337.75;5058575;28;20221;-80
2023/06/07 11:12:53;;;;;;;6.20;5.70;;;;;;;25.55;nan;99339.22;5055967;28;20194;-80
2023/06/07 11:15:23;;;;;;;5.78;5.38;;;;;;;25.61;nan;99343.41;5045684;28;20218;-81
2023/06/07 11:17:53;;;;;;;5.70;5.30;;;;;;;25.18;nan;99337.94;5054766;28;20239;-80
2023/06/07 11:20:35;;;;;;;5.20;4.80;;;;;;;25.74;nan;99339.66;5052604;28;20201;-80
2023/06/07 11:23:21;;;;;;;4.30;4.00;;;;;;;26.06;nan;99341.03;5044819;28;20186;-81
2023/06/07 11:26:05;;;;;;;4.60;4.20;;;;;;;26.13;nan;99329.53;5049951;28;20202;-80
2023/06/07 11:28:37;;;;;;;4.57;4.20;;;;;;;26.02;nan;99331.03;5051092;28;20595;-79
2023/06/07 11:31:08;;;;;;;4.70;4.30;;;;;;;26.08;nan;99335.22;5052922;28;20189;-79
2023/06/07 11:33:36;;;;;;;4.20;3.90;;;;;;;25.87;nan;99340.59;5051549;28;20213;-80
2023/06/07 11:36:04;;;;;;;3.92;3.72;;;;;;;25.56;nan;99346.31;5052361;28;20207;-82
2023/06/07 11:38:32;;;;;;;3.80;3.50;;;;;;;25.59;nan;99340.19;5051552;28;20231;-80
2023/06/07 11:40:59;;;;;;;4.30;3.97;;;;;;;25.51;nan;99342.91;5053440;28;20185;-80
2023/06/07 11:43:27;;;;;;;3.72;3.53;;;;;;;25.46;nan;99348.56;5056229;28;20195;-80
2023/06/07 11:45:56;;;;;;;4.25;3.95;;;;;;;25.20;nan;99335.66;5054692;28;20310;-80
2023/06/07 11:48:30;;;;;;;3.95;3.65;;;;;;;25.32;nan;99343.25;5053648;28;21782;-80
2023/06/07 11:50:58;;;;;;;4.25;3.95;;;;;;;25.30;nan;99334.53;5058655;28;20296;-79
2023/06/07 11:53:28;;;;;;;4.55;4.10;;;;;;;25.22;nan;99338.09;5054246;28;20308;-79
2023/06/07 11:55:59;;;;;;;4.18;3.88;;;;;;;24.96;nan;99336.13;5054000;28;20196;-80
2023/06/07 11:58:26;;;;;;;5.20;4.05;;;;;;;24.96;nan;99333.38;5057350;28;20186;-79